createdAt,value
2023-02-15T00:03:39.307Z,42.6
2023-02-15T00:08:57.826Z,43.1
2023-02-15T00:14:16.643Z,42.6
2023-02-15T00:19:34.660Z,43.4
2023-02-15T00:24:53.167Z,42.7
2023-02-15T00:30:11.522Z,42.7
2023-02-15T00:35:29.494Z,43
2023-02-15T00:40:48.261Z,43.8
2023-02-15T00:46:06.940Z,42.9
2023-02-15T00:51:25.240Z,43.1
2023-02-15T00:56:43.441Z,42.7
2023-02-15T01:02:01.942Z,43.5
2023-02-15T01:07:20.971Z,43.5
2023-02-15T01:12:38.884Z,43.2
2023-02-15T01:17:57.402Z,43.4
2023-02-15T01:23:15.644Z,43.3
2023-02-15T01:28:34.122Z,43.9
2023-02-15T01:33:52.314Z,43.6
2023-02-15T01:39:10.573Z,43
2023-02-15T01:44:29.054Z,43.3
2023-02-15T01:49:47.538Z,43.4
2023-02-15T01:55:09.602Z,43
2023-02-15T02:00:28.087Z,43.6
2023-02-15T02:05:46.555Z,43.2
2023-02-15T02:11:05.375Z,43
2023-02-15T02:16:23.551Z,43.3
2023-02-15T02:21:41.838Z,43.9
2023-02-15T02:27:00.046Z,43.4
2023-02-15T02:32:18.629Z,43.9
2023-02-15T02:37:37.390Z,43.6
2023-02-15T02:42:55.734Z,44.3
2023-02-15T02:48:14.226Z,44
2023-02-15T02:53:32.749Z,43.7
2023-02-15T02:58:50.984Z,43.8
2023-02-15T03:04:09.169Z,43.9
2023-02-15T03:09:27.942Z,43.4
2023-02-15T03:14:46.245Z,43.9
2023-02-15T03:20:04.442Z,43.4
2023-02-15T03:25:23.200Z,44.2
2023-02-15T03:30:42.003Z,44.2
2023-02-15T03:36:01.644Z,44.2
2023-02-15T03:41:20.544Z,43.5
2023-02-15T03:46:39.452Z,44.2
2023-02-15T03:51:57.457Z,44.5
2023-02-15T03:57:15.667Z,43.9
2023-02-15T04:02:18.283Z,44.2
2023-02-15T04:07:36.751Z,44.3
2023-02-15T04:12:55.565Z,45.2
2023-02-15T04:18:14.198Z,45
2023-02-15T04:23:32.667Z,44.3
2023-02-15T04:28:51.155Z,44
2023-02-15T04:34:09.685Z,44.1
2023-02-15T04:39:28.157Z,44.5
2023-02-15T04:44:46.374Z,43.8
2023-02-15T04:50:04.669Z,44.2
2023-02-15T04:55:23.407Z,44
2023-02-15T05:00:41.683Z,44.2
2023-02-15T05:06:01.283Z,44
2023-02-15T05:11:20.041Z,44.6
2023-02-15T05:16:38.645Z,44.3
2023-02-15T05:21:57.221Z,44.1
2023-02-15T05:27:15.412Z,44.4
2023-02-15T05:32:34.397Z,44.2
2023-02-15T05:37:53.314Z,44.8
2023-02-15T05:43:12.276Z,44.5
2023-02-15T05:48:31.023Z,43.1
2023-02-15T05:53:49.558Z,42.8
2023-02-15T05:59:08.305Z,43.8
2023-02-15T06:04:27.076Z,44
2023-02-15T06:09:45.584Z,43.4
2023-02-15T06:15:03.967Z,43.9
2023-02-15T06:20:22.732Z,43.3
2023-02-15T06:25:41.263Z,43.5
2023-02-15T06:31:00.221Z,43
2023-02-15T06:36:19.078Z,43.7
2023-02-15T06:41:37.421Z,43.7
2023-02-15T06:46:56.113Z,44.7
2023-02-15T06:52:15.130Z,43.5
2023-02-15T06:57:34.037Z,44.2
2023-02-15T07:02:52.224Z,43.8
2023-02-15T07:08:10.973Z,43.7
2023-02-15T07:13:29.441Z,43.6
2023-02-15T07:18:47.713Z,43.5
2023-02-15T07:24:07.001Z,43.4
2023-02-15T07:29:10.402Z,42.7
2023-02-15T07:34:28.895Z,43.2
2023-02-15T07:39:47.455Z,43.1
2023-02-15T07:45:06.044Z,43.1
2023-02-15T07:50:24.267Z,43.2
2023-02-15T07:55:42.986Z,42.6
2023-02-15T08:01:01.830Z,42.7
2023-02-15T08:06:20.157Z,43.2
2023-02-15T08:11:38.213Z,42.4
2023-02-15T08:16:56.867Z,43.2
2023-02-15T08:22:14.976Z,43.2
2023-02-15T08:27:33.158Z,43.1
2023-02-15T08:32:51.458Z,42.3
2023-02-15T08:38:09.937Z,42.5
2023-02-15T08:43:29.499Z,43.1
2023-02-15T08:48:48.199Z,42.6
2023-02-15T08:54:06.538Z,43
2023-02-15T08:59:25.304Z,42.3
2023-02-15T09:04:43.884Z,42.6
2023-02-15T09:10:02.275Z,43
2023-02-15T09:15:21.336Z,42.3
2023-02-15T09:20:40.447Z,42
2023-02-15T09:25:58.665Z,42.4
2023-02-15T09:31:17.359Z,42.8
2023-02-15T09:36:35.854Z,42.2
2023-02-15T09:41:54.344Z,42.2
2023-02-15T09:47:13.134Z,43.1
2023-02-15T09:52:31.686Z,42.2
2023-02-15T09:57:50.141Z,42.8
2023-02-15T10:02:54.310Z,42.5
2023-02-15T10:07:57.068Z,42.6
2023-02-15T10:13:15.290Z,42.8
2023-02-15T10:18:34.085Z,42.6
2023-02-15T10:23:53.010Z,42.7
2023-02-15T10:29:11.487Z,42.1
2023-02-15T10:34:30.035Z,42.6
2023-02-15T10:39:48.014Z,42.6
2023-02-15T10:45:06.771Z,42.2
2023-02-15T10:50:24.695Z,42.6
2023-02-15T10:55:43.265Z,42.6
2023-02-15T11:01:03.477Z,42.1
2023-02-15T11:06:22.694Z,42.7
2023-02-15T11:11:41.535Z,42.8
2023-02-15T11:17:00.013Z,42.6
2023-02-15T11:22:18.632Z,42.3
2023-02-15T11:27:37.906Z,42.5
2023-02-15T11:32:56.713Z,41.7
2023-02-15T11:38:15.263Z,41.8
2023-02-15T11:43:33.809Z,42
2023-02-15T11:48:52.060Z,41.5
2023-02-15T11:54:10.555Z,42.2
2023-02-15T11:59:29.203Z,41.7
2023-02-15T12:04:47.759Z,41.9
2023-02-15T12:10:05.963Z,41.6
2023-02-15T12:15:24.348Z,42
2023-02-15T12:20:42.902Z,41.4
2023-02-15T12:26:01.422Z,41.9
2023-02-15T12:31:20.867Z,41.8
2023-02-15T12:36:39.119Z,41.4
2023-02-15T12:41:57.062Z,41.3
2023-02-15T12:47:15.780Z,41.8
2023-02-15T12:52:40.186Z,41.1
2023-02-15T12:57:58.474Z,41.7
2023-02-15T13:03:16.853Z,41.3
2023-02-15T13:08:35.426Z,41.3
2023-02-15T13:13:54.275Z,41.7
2023-02-15T13:19:12.844Z,41
2023-02-15T13:24:31.602Z,41.1
2023-02-15T13:29:50.149Z,41.2
2023-02-15T13:35:08.619Z,40.9
2023-02-15T13:40:11.173Z,41.7
2023-02-15T13:45:30.031Z,41.3
2023-02-15T13:50:48.449Z,41.3
2023-02-15T13:56:06.938Z,41.2
2023-02-15T14:01:25.411Z,41.8
2023-02-15T14:06:44.494Z,41.5
2023-02-15T14:12:03.089Z,41.1
2023-02-15T14:17:21.835Z,41.1
2023-02-15T14:22:40.418Z,41.4
2023-02-15T14:27:58.884Z,41.3
2023-02-15T14:33:17.581Z,41.5
2023-02-15T14:38:25.528Z,41.3
2023-02-15T14:43:45.112Z,41.8
2023-02-15T14:49:05.241Z,41.8
2023-02-15T14:54:23.543Z,41.9
2023-02-15T14:59:42.274Z,42.1
2023-02-15T15:05:00.813Z,41.3
2023-02-15T15:10:19.437Z,42
2023-02-15T15:15:41.107Z,41.5
2023-02-15T15:20:59.587Z,41.6
2023-02-15T15:26:18.172Z,42.1
2023-02-15T15:31:37.432Z,41.8
2023-02-15T15:36:41.242Z,41.9
2023-02-15T15:41:59.819Z,41.8
2023-02-15T15:47:02.383Z,41.8
2023-02-15T15:52:20.593Z,41.1
2023-02-15T15:57:39.397Z,41.9
2023-02-15T16:02:58.194Z,41.5
2023-02-15T16:08:16.962Z,41.9
2023-02-15T16:13:35.794Z,42.7
2023-02-15T16:18:54.573Z,43.1
2023-02-15T16:24:13.343Z,43.3
2023-02-15T16:29:32.184Z,43.7
2023-02-15T16:34:50.677Z,42.6
2023-02-15T16:40:09.213Z,42.8
2023-02-15T16:45:27.620Z,42.8
2023-02-15T16:50:45.564Z,42.3
2023-02-15T16:56:03.740Z,42.9
2023-02-15T17:01:23.128Z,42.2
2023-02-15T17:06:26.371Z,41.9
2023-02-15T17:11:44.900Z,42.7
2023-02-15T17:17:03.738Z,42.5
2023-02-15T17:22:28.643Z,42.3
2023-02-15T17:27:50.030Z,42.3
2023-02-15T17:32:55.454Z,41.9
2023-02-15T17:38:14.787Z,42.6
2023-02-15T17:43:33.188Z,42.2
2023-02-15T17:48:51.196Z,42.7
2023-02-15T17:54:09.713Z,42.9
2023-02-15T17:59:28.212Z,43.5
2023-02-15T18:04:47.093Z,43.2
2023-02-15T18:10:05.598Z,42.9
2023-02-15T18:15:24.168Z,42.8
2023-02-15T18:20:42.521Z,42.6
2023-02-15T18:26:01.055Z,42.6
2023-02-15T18:31:19.868Z,43.2
2023-02-15T18:36:38.145Z,42.2
2023-02-15T18:41:56.400Z,41.6
2023-02-15T18:47:14.882Z,41.5
2023-02-15T18:52:33.467Z,41.5
2023-02-15T18:57:51.979Z,40.1
2023-02-15T19:03:10.509Z,38.9
2023-02-15T19:08:29.094Z,37.5
2023-02-15T19:13:47.293Z,39
2023-02-15T19:19:08.036Z,40.6
2023-02-15T19:24:26.750Z,40.1
2023-02-15T19:29:45.217Z,40.7
2023-02-15T19:35:03.666Z,40.6
2023-02-15T19:40:22.862Z,40.9
2023-02-15T19:45:40.790Z,42.5
2023-02-15T19:50:59.496Z,42.9
2023-02-15T19:56:18.154Z,41.9
2023-02-15T20:01:36.596Z,42.5
2023-02-15T20:06:39.467Z,43.1
2023-02-15T20:11:57.750Z,43
2023-02-15T20:17:15.950Z,42.2
2023-02-15T20:22:34.002Z,43.5
2023-02-15T20:27:52.463Z,43.8
2023-02-15T20:33:11.366Z,44
2023-02-15T20:38:30.353Z,44.3
2023-02-15T20:43:48.750Z,44.3
2023-02-15T20:49:07.536Z,43.7
2023-02-15T20:54:28.435Z,44.2
2023-02-15T20:59:47.331Z,44.9
2023-02-15T21:05:05.747Z,45.5
2023-02-15T21:10:24.578Z,45.3
2023-02-15T21:15:43.353Z,45.1
2023-02-15T21:21:02.464Z,45.2
2023-02-15T21:26:21.187Z,44.8
2023-02-15T21:31:40.336Z,44.4
2023-02-15T21:36:58.558Z,45.5
2023-02-15T21:42:17.031Z,44.2
2023-02-15T21:47:35.880Z,45
2023-02-15T21:52:54.427Z,44.4
2023-02-15T21:58:13.174Z,44.7
2023-02-15T22:03:31.434Z,45.1
2023-02-15T22:08:49.626Z,44.2
2023-02-15T22:14:08.455Z,44.1
2023-02-15T22:19:27.103Z,44.8
2023-02-15T22:24:45.458Z,44.3
2023-02-15T22:30:04.084Z,44.1
2023-02-15T22:35:22.147Z,44.2
2023-02-15T22:40:40.603Z,44.1
2023-02-15T22:45:59.470Z,44.6
2023-02-15T22:51:17.873Z,44.3
2023-02-15T22:56:36.342Z,43.9
2023-02-15T23:01:55.350Z,43.9
2023-02-15T23:07:14.039Z,44.4
2023-02-15T23:12:32.499Z,44
2023-02-15T23:17:52.291Z,44.7
2023-02-15T23:23:10.825Z,44.6
2023-02-15T23:28:29.462Z,44.1
2023-02-15T23:33:47.921Z,44.7
2023-02-15T23:39:06.749Z,43.8
2023-02-15T23:44:25.493Z,44.4
2023-02-15T23:49:43.998Z,43.8
2023-02-15T23:55:02.884Z,44.2
